Time;durP1;ratioP1;P1;durP2;ratioP2;P2;SDS_P1;SDS_P2;PMS_P1;PMS_P2;Temp;Humidity;BMP_temperature;BMP_pressure;BME280_temperature;BME280_humidity;BME280_pressure;Samples;Min_cycle;Max_cycle;Signal;HPM_P1;HPM_P2
2022/05/29 00:01:16;;;;;;;3.20;3.00;;;14.90;84.00;;;;;;5076216;28;20219;-69
2022/05/29 00:03:43;;;;;;;3.33;3.03;;;14.90;84.10;;;;;;5076777;28;20223;-69
2022/05/29 00:06:13;;;;;;;4.95;3.20;;;14.80;84.80;;;;;;5077136;28;20670;-71
2022/05/29 00:08:43;;;;;;;3.75;3.45;;;14.80;85.20;;;;;;5077228;28;20252;-69
2022/05/29 00:11:13;;;;;;;3.75;3.35;;;14.90;85.10;;;;;;5076908;28;20211;-70
2022/05/29 00:13:40;;;;;;;3.60;3.30;;;14.90;84.60;;;;;;5076878;28;20224;-70
2022/05/29 00:16:06;;;;;;;3.50;3.20;;;14.90;86.60;;;;;;5076773;28;20296;-70
2022/05/29 00:18:35;;;;;;;5.60;3.45;;;14.70;87.80;;;;;;5076859;28;20314;-70
2022/05/29 00:21:02;;;;;;;3.72;3.42;;;14.80;88.20;;;;;;5076879;28;20265;-70
2022/05/29 00:23:32;;;;;;;3.20;3.00;;;14.90;89.90;;;;;;5076630;28;20213;-69
2022/05/29 00:25:58;;;;;;;5.35;3.63;;;15.00;90.90;;;;;;5076620;28;20204;-69
2022/05/29 00:28:25;;;;;;;3.83;3.53;;;15.00;91.50;;;;;;5076521;28;20238;-69
2022/05/29 00:30:52;;;;;;;3.22;3.03;;;15.00;91.40;;;;;;5076681;28;20218;-69
2022/05/29 00:33:19;;;;;;;4.03;3.60;;;15.00;91.50;;;;;;5076200;28;20209;-70
2022/05/29 00:35:46;;;;;;;3.78;3.58;;;15.00;92.40;;;;;;5076567;28;20297;-69
2022/05/29 00:38:14;;;;;;;4.68;4.10;;;15.00;92.20;;;;;;5076262;28;20736;-69
2022/05/29 00:40:48;;;;;;;3.92;3.60;;;14.90;91.80;;;;;;5076515;28;20204;-69
2022/05/29 00:43:15;;;;;;;3.53;3.28;;;14.80;92.50;;;;;;5076222;28;20215;-69
2022/05/29 00:45:50;;;;;;;4.00;3.70;;;14.60;92.20;;;;;;5076245;28;20323;-69
2022/05/29 00:48:18;;;;;;;5.20;3.95;;;14.60;91.10;;;;;;5076123;28;20387;-69
2022/05/29 00:50:46;;;;;;;3.67;3.38;;;14.60;94.00;;;;;;5076358;28;20203;-70
2022/05/29 00:53:14;;;;;;;4.45;3.80;;;14.60;91.70;;;;;;5075902;28;20580;-70
2022/05/29 00:55:46;;;;;;;3.70;3.42;;;14.70;93.90;;;;;;5076221;28;20206;-70
2022/05/29 00:58:13;;;;;;;4.05;3.55;;;14.70;94.20;;;;;;5076220;28;20264;-70
2022/05/29 01:00:41;;;;;;;4.28;3.90;;;14.70;92.20;;;;;;5075913;28;20658;-70
2022/05/29 01:03:08;;;;;;;5.00;3.80;;;14.60;91.00;;;;;;5075984;28;20643;-70
2022/05/29 01:05:37;;;;;;;3.67;3.38;;;14.40;89.80;;;;;;5075876;28;20230;-70
2022/05/29 01:08:08;;;;;;;5.93;3.58;;;14.40;90.00;;;;;;5075813;28;20227;-69
2022/05/29 01:10:47;;;;;;;6.25;4.05;;;14.40;89.70;;;;;;5075631;28;20192;-69
2022/05/29 01:13:22;;;;;;;3.80;3.50;;;14.40;90.10;;;;;;5074627;28;20209;-70
2022/05/29 01:15:57;;;;;;;3.83;3.53;;;14.30;89.70;;;;;;5075932;28;20213;-69
2022/05/29 01:18:35;;;;;;;4.32;3.40;;;14.30;89.90;;;;;;5075633;28;20403;-69
2022/05/29 01:21:17;;;;;;;4.25;3.10;;;14.30;89.70;;;;;;5075856;28;20191;-70
2022/05/29 01:24:16;;;;;;;3.83;3.40;;;14.30;90.30;;;;;;5075719;28;20290;-70
2022/05/29 01:26:59;;;;;;;5.30;3.35;;;14.20;88.00;;;;;;5041983;28;20203;-70
2022/05/29 01:29:34;;;;;;;3.38;3.17;;;14.30;90.00;;;;;;5075701;28;20187;-69
2022/05/29 01:32:07;;;;;;;3.60;3.30;;;14.40;89.10;;;;;;5075647;28;20257;-69
2022/05/29 01:34:38;;;;;;;3.33;3.13;;;14.50;90.70;;;;;;5075398;28;20583;-70
2022/05/29 01:37:12;;;;;;;3.92;3.60;;;14.40;87.70;;;;;;5075513;28;20214;-69
2022/05/29 01:39:51;;;;;;;4.40;3.70;;;14.40;87.10;;;;;;5075213;28;20689;-69
2022/05/29 01:42:24;;;;;;;3.70;3.40;;;14.40;88.40;;;;;;5075203;28;20295;-70
2022/05/29 01:44:56;;;;;;;3.55;3.28;;;14.30;88.40;;;;;;5075302;28;20224;-69
2022/05/29 01:47:28;;;;;;;3.65;3.35;;;14.20;86.60;;;;;;5075039;28;20732;-69
2022/05/29 01:50:01;;;;;;;3.70;3.50;;;14.10;84.70;;;;;;5075391;28;20192;-69
2022/05/29 01:52:33;;;;;;;3.40;3.20;;;14.10;86.50;;;;;;5074750;28;20569;-70
2022/05/29 01:55:05;;;;;;;3.50;3.30;;;14.20;87.00;;;;;;5074904;28;20204;-69
2022/05/29 01:57:35;;;;;;;3.90;3.60;;;14.10;87.60;;;;;;5074999;28;20224;-69
2022/05/29 02:00:08;;;;;;;3.53;3.13;;;14.00;86.60;;;;;;5074797;28;20665;-69
2022/05/29 02:02:38;;;;;;;3.63;3.33;;;14.10;87.00;;;;;;5074743;28;20609;-70
2022/05/29 02:05:09;;;;;;;3.40;3.10;;;14.00;87.30;;;;;;5074898;28;20244;-69
2022/05/29 02:07:52;;;;;;;3.05;2.85;;;13.90;87.80;;;;;;5074794;28;20233;-69
2022/05/29 02:10:32;;;;;;;4.50;3.55;;;14.00;88.20;;;;;;5074681;28;20660;-69
2022/05/29 02:13:06;;;;;;;3.15;2.95;;;14.10;88.10;;;;;;5074560;28;20282;-70
2022/05/29 02:15:40;;;;;;;4.10;3.65;;;14.10;88.00;;;;;;5074762;28;20279;-69
2022/05/29 02:18:14;;;;;;;3.70;3.40;;;14.20;87.70;;;;;;5074379;28;20230;-69
2022/05/29 02:20:45;;;;;;;3.47;3.25;;;14.20;88.60;;;;;;5074635;28;20213;-69
2022/05/29 02:23:16;;;;;;;3.53;2.95;;;14.10;87.40;;;;;;5073858;28;20207;-69
2022/05/29 02:25:44;;;;;;;3.58;3.25;;;14.00;87.20;;;;;;5074416;28;20246;-69
2022/05/29 02:28:17;;;;;;;3.10;2.90;;;14.00;85.90;;;;;;5074463;28;20580;-69
2022/05/29 02:30:53;;;;;;;3.22;3.03;;;13.90;86.10;;;;;;5074518;28;20570;-69
2022/05/29 02:33:25;;;;;;;3.30;3.08;;;13.80;87.30;;;;;;5074113;28;20636;-69
2022/05/29 02:36:19;;;;;;;3.35;3.13;;;13.80;87.80;;;;;;5074364;28;20198;-69
2022/05/29 02:38:54;;;;;;;3.15;2.75;;;13.80;87.00;;;;;;5073824;28;20249;-69
2022/05/29 02:41:28;;;;;;;4.03;3.40;;;13.90;86.80;;;;;;5074479;28;20252;-69
2022/05/29 02:44:01;;;;;;;3.20;3.00;;;14.00;88.30;;;;;;5073958;28;20209;-69
2022/05/29 02:46:35;;;;;;;3.60;3.30;;;14.00;88.10;;;;;;5074035;28;20252;-69
2022/05/29 02:49:07;;;;;;;3.55;3.10;;;14.10;87.90;;;;;;5073809;28;20225;-69
2022/05/29 02:51:40;;;;;;;4.30;3.20;;;14.20;88.40;;;;;;5074097;28;20202;-69
2022/05/29 02:54:11;;;;;;;3.97;3.65;;;14.20;88.90;;;;;;5073563;28;20639;-69
2022/05/29 02:56:38;;;;;;;4.47;3.20;;;14.20;88.30;;;;;;5073989;28;20214;-69
2022/05/29 02:59:05;;;;;;;3.50;3.20;;;14.20;88.50;;;;;;5073850;28;20226;-69
2022/05/29 03:01:39;;;;;;;3.85;3.55;;;14.20;89.60;;;;;;5073887;28;20573;-69
2022/05/29 03:04:20;;;;;;;3.58;3.38;;;14.20;89.10;;;;;;5073541;28;20226;-69
2022/05/29 03:06:53;;;;;;;4.30;3.90;;;14.20;90.10;;;;;;5073831;28;20199;-69
2022/05/29 03:09:36;;;;;;;3.75;3.30;;;14.10;90.40;;;;;;5073857;28;20195;-69
2022/05/29 03:12:10;;;;;;;4.35;4.00;;;14.10;90.10;;;;;;5073815;28;20217;-70
2022/05/29 03:14:44;;;;;;;3.47;3.28;;;13.90;90.20;;;;;;5074167;28;20207;-69
2022/05/29 03:17:22;;;;;;;5.28;3.65;;;13.90;91.20;;;;;;5073642;28;20226;-69
2022/05/29 03:19:56;;;;;;;3.67;3.25;;;14.00;91.00;;;;;;5073730;28;20191;-69
2022/05/29 03:22:33;;;;;;;3.60;3.30;;;13.90;90.10;;;;;;5073511;28;20203;-69
2022/05/29 03:25:07;;;;;;;3.50;3.20;;;13.70;90.90;;;;;;5073596;28;20218;-69
2022/05/29 03:27:38;;;;;;;4.22;3.60;;;13.60;90.70;;;;;;5073511;28;20235;-69
2022/05/29 03:30:10;;;;;;;3.72;3.30;;;13.60;91.20;;;;;;5073682;28;20526;-70
2022/05/29 03:32:39;;;;;;;4.18;3.42;;;13.60;90.30;;;;;;5073437;28;20208;-69
2022/05/29 03:35:22;;;;;;;4.05;3.75;;;13.60;90.90;;;;;;5072689;28;20199;-69
2022/05/29 03:37:49;;;;;;;3.40;3.20;;;13.60;90.90;;;;;;5073794;28;20234;-69
2022/05/29 03:40:17;;;;;;;3.42;3.20;;;13.60;90.20;;;;;;5073178;28;20297;-69
2022/05/29 03:42:44;;;;;;;3.45;3.25;;;13.70;90.60;;;;;;5073201;28;20208;-69
2022/05/29 03:45:11;;;;;;;4.28;3.47;;;13.70;90.30;;;;;;5073355;28;20244;-69
2022/05/29 03:47:40;;;;;;;4.00;3.70;;;13.60;90.20;;;;;;5073117;28;20223;-69
2022/05/29 03:50:10;;;;;;;3.60;3.25;;;13.50;90.00;;;;;;5073458;28;20209;-69
2022/05/29 03:52:37;;;;;;;5.13;3.92;;;13.50;90.30;;;;;;5073183;28;20203;-69
2022/05/29 03:55:05;;;;;;;4.88;3.60;;;13.60;90.60;;;;;;5073213;28;20610;-69
2022/05/29 03:57:32;;;;;;;3.97;3.63;;;13.50;90.40;;;;;;5073183;28;20222;-69
2022/05/29 03:59:59;;;;;;;4.18;3.50;;;13.40;90.30;;;;;;5073277;28;20309;-69
2022/05/29 04:02:26;;;;;;;3.80;3.50;;;13.10;90.50;;;;;;5073083;28;20211;-69
2022/05/29 04:04:54;;;;;;;4.10;3.70;;;13.00;90.90;;;;;;5073217;28;20222;-69
2022/05/29 04:12:03;;;;;;;4.18;3.88;;;13.00;90.90;;;;;;5073124;28;20222;-69
2022/05/29 04:12:54;;;;;;;5.88;4.10;;;13.00;91.30;;;;;;5072739;28;20201;-69
2022/05/29 04:15:21;;;;;;;4.32;3.75;;;12.90;92.00;;;;;;5072997;28;20222;-69
2022/05/29 04:17:47;;;;;;;4.10;3.70;;;12.80;92.20;;;;;;5072918;28;20223;-69
2022/05/29 04:20:16;;;;;;;4.03;3.72;;;12.60;92.10;;;;;;5072798;28;20207;-69
2022/05/29 04:22:42;;;;;;;5.30;3.83;;;12.60;93.00;;;;;;5072910;28;20206;-69
2022/05/29 04:25:10;;;;;;;4.25;3.80;;;12.60;93.10;;;;;;5072780;28;20250;-69
2022/05/29 04:27:37;;;;;;;8.13;3.97;;;12.60;93.10;;;;;;5072839;28;20223;-69
2022/05/29 04:30:05;;;;;;;4.18;3.80;;;12.70;93.70;;;;;;5072785;28;20207;-69
2022/05/29 04:35:18;;;;;;;3.90;3.55;;;12.70;93.30;;;;;;5073025;28;20198;-69
2022/05/29 04:37:44;;;;;;;3.80;3.50;;;12.70;93.90;;;;;;5072851;28;20603;-69
2022/05/29 04:40:12;;;;;;;4.15;3.80;;;12.70;94.30;;;;;;5072788;28;20206;-69
2022/05/29 04:42:39;;;;;;;3.33;3.10;;;12.70;95.20;;;;;;5072557;28;20734;-68
2022/05/29 04:45:07;;;;;;;4.30;3.80;;;12.70;95.40;;;;;;5072752;28;20234;-68
2022/05/29 04:47:34;;;;;;;3.80;3.50;;;12.80;96.60;;;;;;5075601;28;20222;-68
2022/05/29 04:50:00;;;;;;;4.65;4.25;;;12.70;96.50;;;;;;5076613;28;20293;-69
2022/05/29 04:52:29;;;;;;;6.95;4.70;;;12.70;96.70;;;;;;5076471;28;20309;-69
2022/05/29 04:54:56;;;;;;;5.47;5.00;;;12.50;98.50;;;;;;5076035;28;20222;-69
2022/05/29 04:57:23;;;;;;;4.90;4.50;;;12.50;99.90;;;;;;5076066;28;20229;-69
2022/05/29 04:59:50;;;;;;;4.63;4.00;;;12.40;99.90;;;;;;5076216;28;20202;-69
2022/05/29 05:02:17;;;;;;;5.20;4.60;;;12.40;99.90;;;;;;5075958;28;20298;-69
2022/05/29 05:04:44;;;;;;;6.03;4.50;;;12.40;99.90;;;;;;5075851;28;20207;-69
2022/05/29 05:07:10;;;;;;;5.28;4.88;;;12.50;99.90;;;;;;5076349;28;20317;-69
2022/05/29 05:09:40;;;;;;;5.10;4.60;;;12.50;99.90;;;;;;5076071;28;20199;-69
2022/05/29 05:12:07;;;;;;;5.60;5.10;;;12.50;99.90;;;;;;5075831;28;20591;-69
2022/05/29 05:14:35;;;;;;;5.47;4.95;;;12.50;99.90;;;;;;5075616;28;20214;-69
2022/05/29 05:17:02;;;;;;;5.78;5.22;;;12.60;99.90;;;;;;5075792;28;20615;-69
2022/05/29 05:19:29;;;;;;;6.10;5.50;;;12.70;99.90;;;;;;5075601;28;20213;-69
2022/05/29 05:21:56;;;;;;;5.85;5.32;;;12.40;99.90;;;;;;5075833;28;20209;-69
2022/05/29 05:24:23;;;;;;;6.07;5.57;;;12.40;99.90;;;;;;5075587;28;20209;-69
2022/05/29 05:26:51;;;;;;;6.00;5.50;;;12.50;99.90;;;;;;5075496;28;20223;-70
2022/05/29 05:29:18;;;;;;;5.75;5.25;;;12.50;99.90;;;;;;5075655;28;20203;-69
2022/05/29 05:31:45;;;;;;;6.15;5.65;;;12.50;99.90;;;;;;5075439;28;20751;-69
2022/05/29 05:34:11;;;;;;;6.00;5.50;;;12.50;99.90;;;;;;5075470;28;20209;-69
2022/05/29 05:36:38;;;;;;;5.43;4.70;;;12.40;99.90;;;;;;5075552;28;20198;-69
2022/05/29 05:39:05;;;;;;;5.35;4.85;;;12.40;99.90;;;;;;5075515;28;20576;-69
2022/05/29 05:41:32;;;;;;;6.10;5.50;;;12.40;99.90;;;;;;5075146;28;20571;-69
2022/05/29 05:44:01;;;;;;;5.38;4.88;;;12.40;99.90;;;;;;5075226;28;20564;-69
2022/05/29 05:46:27;;;;;;;5.47;5.00;;;12.30;99.90;;;;;;5075250;28;20313;-69
2022/05/29 05:48:57;;;;;;;6.15;5.22;;;12.20;99.90;;;;;;5075312;28;20625;-69
2022/05/29 05:51:24;;;;;;;5.78;5.28;;;12.30;99.90;;;;;;5075257;28;20210;-69
2022/05/29 05:53:51;;;;;;;5.40;4.90;;;12.20;99.90;;;;;;5074619;28;20576;-69
2022/05/29 05:56:19;;;;;;;5.30;4.80;;;12.20;99.90;;;;;;5075053;28;20199;-69
2022/05/29 05:58:46;;;;;;;6.47;5.03;;;12.20;99.90;;;;;;5074320;28;20229;-69
2022/05/29 06:01:16;;;;;;;5.05;4.65;;;12.20;99.90;;;;;;5074883;28;20206;-69
2022/05/29 06:03:44;;;;;;;5.07;4.68;;;12.20;99.90;;;;;;5074888;28;20203;-69
2022/05/29 06:06:11;;;;;;;5.55;5.15;;;12.30;99.90;;;;;;5075012;28;20227;-69
2022/05/29 06:08:38;;;;;;;5.68;5.07;;;12.20;99.90;;;;;;5074592;28;20314;-69
2022/05/29 06:11:05;;;;;;;5.40;4.90;;;12.30;99.90;;;;;;5074854;28;20241;-69
2022/05/29 06:13:32;;;;;;;5.57;5.07;;;12.30;99.90;;;;;;5074614;28;20280;-69
2022/05/29 06:16:00;;;;;;;4.65;4.25;;;12.30;99.90;;;;;;5074722;28;20206;-69
2022/05/29 06:18:29;;;;;;;4.95;4.47;;;12.30;99.90;;;;;;5074485;28;20231;-69
2022/05/29 06:21:00;;;;;;;4.80;4.30;;;12.40;99.90;;;;;;5074335;28;20239;-69
2022/05/29 06:23:27;;;;;;;4.00;3.70;;;12.40;99.90;;;;;;5074181;28;20232;-68
2022/05/29 06:25:54;;;;;;;4.65;4.25;;;12.30;99.90;;;;;;5074251;28;20700;-68
2022/05/29 06:28:22;;;;;;;4.28;3.88;;;12.30;99.90;;;;;;5074435;28;20576;-69
2022/05/29 06:30:48;;;;;;;4.55;4.15;;;12.40;99.90;;;;;;5074383;28;20567;-68
2022/05/29 06:33:16;;;;;;;4.15;3.85;;;12.50;99.90;;;;;;5074030;28;20585;-69
2022/05/29 06:35:44;;;;;;;4.10;3.80;;;12.50;99.90;;;;;;5074374;28;20203;-69
2022/05/29 06:38:11;;;;;;;4.55;4.15;;;12.60;99.90;;;;;;5074850;28;20222;-69
2022/05/29 06:40:42;;;;;;;4.10;3.70;;;12.60;99.90;;;;;;5074599;28;20203;-69
2022/05/29 06:43:09;;;;;;;4.22;3.55;;;12.80;99.90;;;;;;5073958;28;20225;-69
2022/05/29 06:45:36;;;;;;;3.17;2.97;;;12.90;99.90;;;;;;5074103;28;20219;-68
2022/05/29 06:48:03;;;;;;;3.80;3.50;;;12.90;99.90;;;;;;5073888;28;20229;-69
2022/05/29 06:50:30;;;;;;;4.55;4.00;;;12.90;99.90;;;;;;5074053;28;20297;-69
2022/05/29 06:52:58;;;;;;;4.80;3.92;;;12.90;99.90;;;;;;5073764;28;20281;-69
2022/05/29 06:55:25;;;;;;;3.63;3.33;;;12.90;99.90;;;;;;5073863;28;20247;-68
2022/05/29 06:57:52;;;;;;;4.25;3.85;;;12.80;99.90;;;;;;5073707;28;20314;-69
2022/05/29 07:08:40;;;;;;;4.00;3.60;;;12.90;99.90;;;;;;5073723;28;20572;-69
2022/05/29 07:11:12;;;;;;;3.20;2.90;;;13.10;99.90;;;;;;5073687;28;20206;-69
2022/05/29 07:13:39;;;;;;;4.40;3.38;;;13.20;99.90;;;;;;5073564;28;20206;-69
2022/05/29 07:16:06;;;;;;;3.65;3.30;;;13.30;99.70;;;;;;5073974;28;20207;-69
2022/05/29 07:18:33;;;;;;;3.65;3.30;;;13.20;99.90;;;;;;5073687;28;20309;-69
2022/05/29 07:21:02;;;;;;;2.95;2.72;;;13.20;99.60;;;;;;5073400;28;20207;-69
2022/05/29 07:23:29;;;;;;;3.47;2.95;;;13.30;99.60;;;;;;5073246;28;20256;-69
2022/05/29 07:25:58;;;;;;;3.53;3.05;;;13.20;99.40;;;;;;5073613;28;20223;-68
2022/05/29 07:28:25;;;;;;;6.13;3.15;;;13.20;99.60;;;;;;5073307;28;20708;-69
2022/05/29 07:30:54;;;;;;;3.45;3.15;;;13.20;99.90;;;;;;5073575;28;20198;-69
2022/05/29 07:33:20;;;;;;;2.65;2.45;;;13.20;99.70;;;;;;5073161;28;20691;-69
2022/05/29 07:35:47;;;;;;;3.30;2.72;;;13.20;99.70;;;;;;5073572;28;20225;-68
2022/05/29 07:38:14;;;;;;;3.70;2.58;;;13.20;98.90;;;;;;5073296;28;20344;-69
2022/05/29 07:40:42;;;;;;;3.67;2.70;;;13.20;99.20;;;;;;5073485;28;20198;-69
2022/05/29 07:43:22;;;;;;;3.33;3.00;;;13.30;99.40;;;;;;5073141;28;20207;-69
2022/05/29 07:45:50;;;;;;;2.67;2.47;;;13.30;99.20;;;;;;5073388;28;20217;-68
2022/05/29 07:48:18;;;;;;;4.78;2.90;;;13.40;99.00;;;;;;5073357;28;20261;-68
2022/05/29 07:50:45;;;;;;;3.10;2.80;;;13.40;98.00;;;;;;5073388;28;20546;-68
2022/05/29 07:53:12;;;;;;;4.05;2.65;;;13.40;98.40;;;;;;5073037;28;20221;-69
2022/05/29 07:55:39;;;;;;;4.13;2.70;;;13.70;97.90;;;;;;5073333;28;20203;-69
2022/05/29 07:58:06;;;;;;;2.55;2.35;;;13.90;97.70;;;;;;5073119;28;20219;-69
2022/05/29 08:00:36;;;;;;;3.67;2.22;;;14.30;96.70;;;;;;5073359;28;20547;-69
2022/05/29 08:03:03;;;;;;;2.70;2.50;;;14.60;95.50;;;;;;5072949;28;20203;-69
2022/05/29 08:05:31;;;;;;;3.80;2.63;;;15.10;94.90;;;;;;5073260;28;20209;-69
2022/05/29 08:07:58;;;;;;;2.97;2.65;;;15.20;93.70;;;;;;5072834;28;20282;-69
2022/05/29 08:10:26;;;;;;;2.92;2.63;;;15.20;93.80;;;;;;5073057;28;20205;-69
2022/05/29 08:12:53;;;;;;;3.38;2.58;;;15.20;93.80;;;;;;5072840;28;20210;-69
2022/05/29 08:15:20;;;;;;;3.92;2.78;;;14.80;93.30;;;;;;5073164;28;20203;-69
2022/05/29 08:17:48;;;;;;;3.13;2.80;;;14.50;94.30;;;;;;5073019;28;20224;-69
2022/05/29 08:20:16;;;;;;;3.85;3.10;;;14.30;95.60;;;;;;5073187;28;20294;-69
2022/05/29 08:22:43;;;;;;;4.80;2.80;;;14.20;95.90;;;;;;5076447;28;20688;-69
2022/05/29 08:30:43;;;;;;;3.25;2.83;;;13.70;96.50;;;;;;5076838;28;20201;-69
2022/05/29 08:33:14;;;;;;;5.18;3.03;;;13.40;96.70;;;;;;5076411;28;20257;-69
2022/05/29 08:35:43;;;;;;;4.95;3.30;;;13.40;96.70;;;;;;5076693;28;20293;-69
2022/05/29 08:38:12;;;;;;;3.80;2.97;;;13.50;97.40;;;;;;5076405;28;20346;-69
2022/05/29 08:40:44;;;;;;;4.68;3.13;;;13.70;96.80;;;;;;5076562;28;20230;-69
2022/05/29 08:43:15;;;;;;;6.15;3.30;;;13.70;96.80;;;;;;5076136;28;20206;-69
2022/05/29 08:45:43;;;;;;;2.83;2.60;;;13.90;96.20;;;;;;5076398;28;20230;-68
2022/05/29 08:48:11;;;;;;;3.15;2.60;;;13.90;96.10;;;;;;5076190;28;20232;-69
2022/05/29 08:50:47;;;;;;;2.88;2.67;;;14.00;96.30;;;;;;5076439;28;20208;-69
2022/05/29 08:53:22;;;;;;;5.45;2.80;;;14.40;96.50;;;;;;5075924;28;20769;-69
2022/05/29 08:55:53;;;;;;;3.10;2.90;;;14.60;95.90;;;;;;5076341;28;20209;-69
2022/05/29 08:58:28;;;;;;;3.47;2.78;;;14.50;96.40;;;;;;5076254;28;20232;-69
2022/05/29 09:01:06;;;;;;;3.00;2.70;;;14.50;96.20;;;;;;5076260;28;20202;-69
2022/05/29 09:03:51;;;;;;;3.58;3.13;;;14.50;95.80;;;;;;5075844;28;20310;-69
2022/05/29 09:06:23;;;;;;;3.38;2.97;;;14.40;96.60;;;;;;5076468;28;20318;-68
2022/05/29 09:08:57;;;;;;;4.13;3.40;;;14.10;96.70;;;;;;5076109;28;20607;-69
2022/05/29 09:11:30;;;;;;;3.85;2.83;;;14.00;96.90;;;;;;5075997;28;20205;-69
2022/05/29 09:14:07;;;;;;;4.03;2.88;;;13.90;97.50;;;;;;5075582;28;20207;-69
2022/05/29 09:16:41;;;;;;;7.13;4.05;;;13.90;97.10;;;;;;5075986;28;20199;-68
2022/05/29 09:19:15;;;;;;;8.77;4.90;;;13.80;97.30;;;;;;5075627;28;20221;-69
2022/05/29 09:21:51;;;;;;;5.85;4.00;;;13.70;98.60;;;;;;5075760;28;20294;-68
2022/05/29 09:24:31;;;;;;;6.53;3.47;;;13.90;98.10;;;;;;5075634;28;20242;-68
2022/05/29 09:26:58;;;;;;;3.67;2.90;;;13.80;97.90;;;;;;5075635;28;20237;-69
2022/05/29 09:29:25;;;;;;;4.22;3.35;;;13.90;99.00;;;;;;5075770;28;20203;-69
2022/05/29 09:31:53;;;;;;;4.20;3.08;;;13.80;99.00;;;;;;5075221;28;20206;-69
2022/05/29 09:34:21;;;;;;;3.25;2.95;;;13.70;98.40;;;;;;5074725;28;20206;-68
2022/05/29 09:36:57;;;;;;;5.78;3.28;;;13.70;98.70;;;;;;5075252;28;20289;-69
2022/05/29 09:39:28;;;;;;;3.90;2.65;;;13.70;99.20;;;;;;5075641;28;20191;-68
2022/05/29 09:42:04;;;;;;;4.97;3.47;;;13.70;99.70;;;;;;5075515;28;20209;-68
2022/05/29 09:44:31;;;;;;;3.15;2.72;;;13.80;98.40;;;;;;5075482;28;20207;-68
2022/05/29 09:49:40;;;;;;;4.30;2.90;;;13.70;98.60;;;;;;5075343;28;20226;-68
2022/05/29 09:50:03;;;;;;;4.53;3.10;;;13.80;98.80;;;;;;5074975;28;20538;-69
2022/05/29 09:52:32;;;;;;;3.33;2.90;;;14.00;98.30;;;;;;5074888;28;20213;-68
2022/05/29 09:55:05;;;;;;;3.65;3.08;;;14.00;98.60;;;;;;5075042;28;20305;-68
2022/05/29 09:57:42;;;;;;;4.35;2.88;;;14.00;99.10;;;;;;5075087;28;20231;-68
2022/05/29 10:00:16;;;;;;;3.72;3.20;;;14.10;99.30;;;;;;5075127;28;20208;-68
2022/05/29 10:02:45;;;;;;;4.05;3.38;;;14.00;99.10;;;;;;5074662;28;20669;-68
2022/05/29 10:05:25;;;;;;;5.68;3.20;;;14.00;99.60;;;;;;5074992;28;20216;-68
2022/05/29 10:07:54;;;;;;;3.28;2.97;;;14.00;99.40;;;;;;5074794;28;20235;-68
2022/05/29 10:10:33;;;;;;;3.70;3.03;;;14.10;98.20;;;;;;5075280;28;20203;-69
2022/05/29 10:13:02;;;;;;;4.22;3.10;;;14.10;97.90;;;;;;5074706;28;20206;-68
2022/05/29 10:15:38;;;;;;;2.60;2.40;;;14.20;97.20;;;;;;5074626;28;20207;-68
2022/05/29 10:18:13;;;;;;;3.78;2.65;;;13.90;96.70;;;;;;5074476;28;20219;-69
2022/05/29 10:20:43;;;;;;;3.00;2.70;;;13.80;97.20;;;;;;5074715;28;20192;-69
2022/05/29 10:23:12;;;;;;;5.05;3.15;;;13.90;97.40;;;;;;5074239;28;20203;-69
2022/05/29 10:25:42;;;;;;;3.47;2.70;;;14.00;96.10;;;;;;5074571;28;20205;-68
2022/05/29 10:28:16;;;;;;;4.32;2.90;;;13.90;96.10;;;;;;5074241;28;20313;-69
2022/05/29 10:30:48;;;;;;;5.00;2.90;;;13.70;96.20;;;;;;5074589;28;20191;-68
2022/05/29 10:33:21;;;;;;;4.03;2.63;;;13.70;95.90;;;;;;5074130;28;20206;-68
2022/05/29 10:35:51;;;;;;;2.75;2.50;;;13.50;95.30;;;;;;5074189;28;20703;-68
2022/05/29 10:38:27;;;;;;;4.35;3.10;;;13.50;96.60;;;;;;5074267;28;20349;-68
2022/05/29 10:40:56;;;;;;;4.53;3.90;;;13.50;96.90;;;;;;5074216;28;20203;-68
2022/05/29 10:43:42;;;;;;;2.80;2.60;;;13.50;95.10;;;;;;5073690;28;20203;-69
2022/05/29 10:46:16;;;;;;;3.70;2.67;;;13.50;95.20;;;;;;5074224;28;20207;-68
2022/05/29 10:49:21;;;;;;;2.90;2.30;;;13.40;95.10;;;;;;5074117;28;20233;-68
2022/05/29 10:52:23;;;;;;;3.78;3.45;;;13.40;97.00;;;;;;5063909;28;20203;-69
2022/05/29 10:55:12;;;;;;;4.13;3.67;;;13.50;99.00;;;;;;5071245;28;20577;-68
2022/05/29 10:58:05;;;;;;;4.55;3.55;;;13.40;99.80;;;;;;5073850;28;20302;-68
2022/05/29 11:00:48;;;;;;;4.45;3.17;;;13.40;99.90;;;;;;5073894;28;20558;-68
2022/05/29 11:03:34;;;;;;;3.70;3.30;;;13.50;99.90;;;;;;5073796;28;20625;-68
2022/05/29 11:06:43;;;;;;;4.07;2.85;;;13.50;99.00;;;;;;5073857;28;20256;-68
2022/05/29 11:09:44;;;;;;;3.47;2.90;;;13.50;98.40;;;;;;5073573;28;20215;-68
2022/05/29 11:12:22;;;;;;;3.17;2.80;;;13.60;98.70;;;;;;5068491;28;20202;-68
2022/05/29 11:15:05;;;;;;;5.78;3.67;;;13.70;98.30;;;;;;5073752;28;20207;-68
2022/05/29 11:18:07;;;;;;;6.18;4.93;;;14.00;99.10;;;;;;5073682;28;20223;-68
2022/05/29 11:20:52;;;;;;;2.83;2.63;;;14.30;99.50;;;;;;5073822;28;20203;-68
2022/05/29 11:23:41;;;;;;;3.20;2.25;;;14.20;97.20;;;;;;5073546;28;20221;-68
2022/05/29 11:26:22;;;;;;;4.88;2.78;;;14.20;96.90;;;;;;5073678;28;20207;-68
2022/05/29 11:29:04;;;;;;;3.22;2.45;;;14.00;96.50;;;;;;5073253;28;20311;-68
2022/05/29 11:31:53;;;;;;;2.97;2.15;;;14.00;96.00;;;;;;5073581;28;20202;-68
2022/05/29 11:34:33;;;;;;;3.30;2.17;;;14.30;96.30;;;;;;5073455;28;20619;-69
2022/05/29 11:37:22;;;;;;;2.55;2.35;;;14.30;94.70;;;;;;5073485;28;20203;-68
2022/05/29 11:39:54;;;;;;;2.50;2.25;;;14.50;94.80;;;;;;5073584;28;20192;-68
2022/05/29 11:42:26;;;;;;;2.42;2.17;;;14.60;94.60;;;;;;5073118;28;20212;-69
2022/05/29 11:44:59;;;;;;;2.35;2.10;;;14.70;93.30;;;;;;5073269;28;20691;-68
2022/05/29 11:53:20;;;;;;;2.60;2.40;;;14.20;93.90;;;;;;5072786;28;20201;-69
2022/05/29 11:55:49;;;;;;;2.72;2.53;;;14.50;92.10;;;;;;5074098;28;20210;-68
2022/05/29 11:58:21;;;;;;;3.55;2.60;;;14.40;95.70;;;;;;5077300;28;20222;-69
2022/05/29 12:00:54;;;;;;;4.20;2.60;;;14.50;97.30;;;;;;5077175;28;20650;-68
2022/05/29 12:03:32;;;;;;;2.75;2.58;;;14.90;97.20;;;;;;5077217;28;20206;-68
2022/05/29 12:06:06;;;;;;;3.83;3.50;;;15.20;95.60;;;;;;5077131;28;20206;-69
2022/05/29 12:08:43;;;;;;;3.40;3.03;;;15.10;96.60;;;;;;5077682;28;20247;-69
2022/05/29 12:11:22;;;;;;;3.45;3.13;;;15.20;97.60;;;;;;5077250;28;20192;-68
2022/05/29 12:13:56;;;;;;;4.30;2.80;;;15.30;96.80;;;;;;5076834;28;20657;-69
2022/05/29 12:16:28;;;;;;;2.60;2.40;;;15.60;97.00;;;;;;5077141;28;20215;-69
2022/05/29 12:18:58;;;;;;;3.22;2.92;;;16.00;96.30;;;;;;5077096;28;20244;-69
2022/05/29 12:21:31;;;;;;;3.47;3.00;;;16.10;96.30;;;;;;5076875;28;20292;-69
2022/05/29 12:24:00;;;;;;;3.83;3.53;;;16.00;95.20;;;;;;5076740;28;20228;-69
2022/05/29 12:26:35;;;;;;;3.92;2.70;;;16.00;95.00;;;;;;5076869;28;20212;-69
2022/05/29 12:29:05;;;;;;;4.82;3.17;;;16.10;95.20;;;;;;5076762;28;20621;-69
2022/05/29 12:31:37;;;;;;;3.20;2.88;;;16.00;94.60;;;;;;5076800;28;20205;-69
2022/05/29 12:34:05;;;;;;;3.50;2.63;;;15.90;94.80;;;;;;5076333;28;20215;-69
2022/05/29 12:36:49;;;;;;;3.15;2.85;;;16.00;94.80;;;;;;5076717;28;20210;-69
2022/05/29 12:39:31;;;;;;;3.67;3.38;;;16.10;94.90;;;;;;5076698;28;20611;-69
2022/05/29 12:42:27;;;;;;;3.83;2.92;;;16.00;93.70;;;;;;5076562;28;20300;-69
2022/05/29 12:45:29;;;;;;;3.55;2.63;;;15.90;93.90;;;;;;5075163;28;20211;-69
2022/05/29 12:48:28;;;;;;;3.25;2.45;;;16.00;93.90;;;;;;5076396;28;20237;-69
2022/05/29 12:51:19;;;;;;;4.28;2.45;;;16.00;92.00;;;;;;5076477;28;20201;-69
2022/05/29 12:54:28;;;;;;;2.53;2.33;;;16.20;91.40;;;;;;5076042;28;20209;-69
2022/05/29 12:57:32;;;;;;;2.90;2.45;;;16.10;91.80;;;;;;5076176;28;20209;-69
2022/05/29 13:00:28;;;;;;;4.25;2.67;;;16.10;90.80;;;;;;5072735;28;20204;-69
2022/05/29 13:03:35;;;;;;;2.80;2.50;;;16.20;92.20;;;;;;5076009;28;20290;-69
2022/05/29 13:06:43;;;;;;;2.50;2.30;;;16.40;92.80;;;;;;5076202;28;20630;-69
2022/05/29 13:09:31;;;;;;;2.30;2.10;;;16.60;91.50;;;;;;5076047;28;20226;-69
2022/05/29 13:12:03;;;;;;;2.10;1.90;;;16.50;90.30;;;;;;5076118;28;20396;-69
2022/05/29 13:14:31;;;;;;;2.10;1.90;;;16.30;90.60;;;;;;5076072;28;20217;-69
2022/05/29 13:17:05;;;;;;;1.80;1.70;;;16.20;91.00;;;;;;5075791;28;20668;-69
2022/05/29 13:20:05;;;;;;;1.70;1.60;;;16.10;88.40;;;;;;5076037;28;20191;-69
2022/05/29 13:22:58;;;;;;;2.17;1.90;;;16.10;86.90;;;;;;5075734;28;20206;-69
2022/05/29 13:25:28;;;;;;;2.15;1.88;;;16.30;86.80;;;;;;5075844;28;20203;-69
2022/05/29 13:27:57;;;;;;;2.30;2.10;;;16.30;86.90;;;;;;5075651;28;20603;-69
2022/05/29 13:31:05;;;;;;;2.85;2.17;;;16.50;89.00;;;;;;5076282;28;20259;-69
2022/05/29 13:34:00;;;;;;;5.60;2.17;;;16.70;88.20;;;;;;5075744;28;20206;-69
2022/05/29 13:37:07;;;;;;;2.50;2.28;;;16.50;87.30;;;;;;5075581;28;20610;-68
2022/05/29 13:39:59;;;;;;;1.70;1.60;;;16.60;86.80;;;;;;5075430;28;20194;-69
2022/05/29 13:42:38;;;;;;;3.08;2.00;;;16.80;84.40;;;;;;5068014;28;20238;-69
2022/05/29 13:45:41;;;;;;;1.88;1.77;;;16.80;83.00;;;;;;5075223;28;20213;-69